Time;durP1;ratioP1;P1;durP2;ratioP2;P2;SDS_P1;SDS_P2;PMS_P1;PMS_P2;Temp;Humidity;BMP_temperature;BMP_pressure;BME280_temperature;BME280_humidity;BME280_pressure;Samples;Min_cycle;Max_cycle;Signal;HPM_P1;HPM_P2
2022/04/22 00:00:09;;;;;;;6.25;2.70;;;10.30;91.70;;;;;;4944585;28;20019;-72
2022/04/22 00:02:36;;;;;;;5.07;2.33;;;10.20;91.70;;;;;;4957301;28;20877;-72
2022/04/22 00:05:03;;;;;;;5.18;2.58;;;10.20;91.80;;;;;;4954945;28;20066;-72
2022/04/22 00:07:28;;;;;;;5.75;2.40;;;10.00;91.70;;;;;;4955961;28;20031;-72
2022/04/22 00:09:57;;;;;;;4.78;2.55;;;9.90;91.90;;;;;;4954282;28;20037;-72
2022/04/22 00:12:23;;;;;;;5.80;2.53;;;9.80;91.90;;;;;;4937852;28;20027;-72
2022/04/22 00:14:49;;;;;;;3.42;2.20;;;9.60;92.00;;;;;;4961478;28;20041;-72
2022/04/22 00:17:15;;;;;;;4.75;2.63;;;9.50;92.00;;;;;;4946190;28;20029;-72
2022/04/22 00:19:41;;;;;;;9.07;2.25;;;9.50;92.00;;;;;;4957320;28;20031;-68
2022/04/22 00:22:07;;;;;;;3.70;2.53;;;9.50;91.90;;;;;;4956199;28;20034;-72
2022/04/22 00:24:33;;;;;;;3.88;2.25;;;9.50;91.80;;;;;;4932194;28;20118;-71
2022/04/22 00:26:59;;;;;;;3.30;2.40;;;9.50;91.90;;;;;;4954619;28;20506;-71
2022/04/22 00:29:24;;;;;;;5.05;2.30;;;9.60;91.60;;;;;;4941787;28;20029;-71
2022/04/22 00:31:50;;;;;;;7.80;2.45;;;9.60;91.50;;;;;;4958218;28;20155;-71
2022/04/22 00:34:16;;;;;;;6.93;2.72;;;9.60;91.50;;;;;;4960899;28;20066;-71
2022/04/22 00:36:42;;;;;;;5.20;2.22;;;9.70;91.50;;;;;;4959678;28;20027;-71
2022/04/22 00:39:07;;;;;;;4.97;2.20;;;9.70;91.50;;;;;;4959689;28;20475;-71
2022/04/22 00:41:33;;;;;;;4.78;2.30;;;9.60;92.00;;;;;;4957265;28;20550;-71
2022/04/22 00:43:59;;;;;;;6.95;2.47;;;9.50;91.60;;;;;;4954693;28;20263;-71
2022/04/22 00:46:25;;;;;;;3.65;2.30;;;9.50;91.50;;;;;;4953728;28;20818;-71
2022/04/22 00:48:50;;;;;;;3.88;2.40;;;9.30;91.70;;;;;;4951130;28;20130;-71
2022/04/22 00:51:18;;;;;;;4.22;2.17;;;9.20;91.80;;;;;;4960192;28;20051;-71
2022/04/22 00:53:46;;;;;;;4.30;2.20;;;9.00;91.90;;;;;;4958316;28;20022;-71
2022/04/22 00:56:12;;;;;;;5.35;2.15;;;8.90;91.90;;;;;;4938596;28;20046;-71
2022/04/22 00:58:44;;;;;;;6.00;2.30;;;8.80;92.10;;;;;;4955055;28;20030;-71
2022/04/22 01:01:11;;;;;;;5.70;2.05;;;8.60;92.10;;;;;;4952467;28;20382;-71
2022/04/22 01:03:38;;;;;;;5.63;2.30;;;8.60;92.10;;;;;;4952328;28;20181;-71
2022/04/22 01:11:37;;;;;;;5.25;2.22;;;8.30;92.50;;;;;;4957060;28;20034;-71
2022/04/22 01:14:07;;;;;;;5.00;2.50;;;8.20;92.70;;;;;;4956343;28;20809;-69
2022/04/22 01:16:34;;;;;;;4.05;2.58;;;8.10;92.70;;;;;;4953018;28;20078;-70
2022/04/22 01:19:00;;;;;;;4.88;2.40;;;8.00;92.70;;;;;;4952823;28;20126;-70
2022/04/22 01:21:25;;;;;;;3.53;2.28;;;8.00;92.80;;;;;;4952719;28;20117;-70
2022/04/22 01:23:51;;;;;;;5.22;2.38;;;7.90;92.90;;;;;;4952889;28;20128;-71
2022/04/22 01:26:17;;;;;;;6.55;2.60;;;7.90;92.90;;;;;;4951263;28;20038;-70
2022/04/22 01:28:43;;;;;;;4.80;2.53;;;7.80;92.90;;;;;;4954762;28;20870;-71
2022/04/22 01:31:09;;;;;;;8.30;3.22;;;7.70;93.00;;;;;;4954958;28;20046;-70
2022/04/22 01:33:35;;;;;;;7.03;2.38;;;7.70;93.10;;;;;;4951414;28;20029;-71
2022/04/22 01:36:01;;;;;;;3.72;2.15;;;7.70;93.10;;;;;;4952326;28;20492;-70
2022/04/22 01:38:27;;;;;;;3.95;2.25;;;7.60;93.10;;;;;;4953619;28;20034;-71
2022/04/22 01:40:54;;;;;;;7.53;2.58;;;7.50;93.20;;;;;;4953156;28;20023;-70
2022/04/22 01:43:24;;;;;;;4.57;2.65;;;7.50;93.30;;;;;;4935342;28;20736;-70
2022/04/22 01:45:52;;;;;;;4.82;2.08;;;7.50;93.40;;;;;;4952349;28;20789;-72
2022/04/22 01:48:19;;;;;;;2.67;1.92;;;7.40;93.40;;;;;;4942938;28;20031;-72
2022/04/22 01:50:45;;;;;;;5.18;2.85;;;7.40;93.40;;;;;;4954848;28;20109;-72
2022/04/22 01:53:10;;;;;;;6.35;2.60;;;7.30;93.50;;;;;;4956955;28;20399;-72
2022/04/22 01:55:36;;;;;;;5.20;2.53;;;7.30;93.50;;;;;;4953352;28;20042;-72
2022/04/22 01:58:02;;;;;;;3.38;1.73;;;7.20;93.90;;;;;;4955655;28;20908;-71
2022/04/22 02:00:28;;;;;;;6.63;2.30;;;7.20;93.70;;;;;;4950469;28;20026;-73
2022/04/22 02:02:54;;;;;;;3.60;2.63;;;7.20;93.80;;;;;;4947580;28;20038;-71
2022/04/22 02:05:21;;;;;;;6.72;2.17;;;7.10;93.70;;;;;;4952497;28;20066;-72
2022/04/22 02:07:46;;;;;;;5.40;2.22;;;7.10;93.80;;;;;;4959674;28;20298;-72
2022/04/22 02:10:13;;;;;;;3.28;1.73;;;7.10;93.80;;;;;;4959115;28;20027;-72
2022/04/22 02:12:38;;;;;;;3.70;2.00;;;7.00;93.80;;;;;;4943535;28;20034;-72
2022/04/22 02:15:04;;;;;;;5.80;2.15;;;7.00;93.80;;;;;;4957565;28;20041;-71
2022/04/22 02:17:30;;;;;;;5.20;2.35;;;6.90;93.80;;;;;;4958977;28;20066;-72
2022/04/22 02:19:56;;;;;;;4.43;2.30;;;6.90;93.80;;;;;;4955023;28;20123;-72
2022/04/22 02:22:22;;;;;;;5.97;2.65;;;6.90;93.90;;;;;;4957334;28;20035;-72
2022/04/22 02:24:48;;;;;;;4.53;2.03;;;6.80;93.90;;;;;;4964790;28;20435;-71
2022/04/22 02:29:58;;;;;;;4.22;2.40;;;6.90;94.00;;;;;;4959140;28;20039;-72
2022/04/22 02:32:24;;;;;;;5.03;2.45;;;6.90;94.10;;;;;;4960397;28;20041;-72
2022/04/22 02:34:50;;;;;;;7.93;2.95;;;6.90;94.20;;;;;;4959480;28;20054;-72
2022/04/22 02:37:16;;;;;;;4.43;2.10;;;6.90;94.20;;;;;;4954102;28;20038;-72
2022/04/22 02:39:42;;;;;;;6.22;2.30;;;6.90;94.20;;;;;;4953992;28;20045;-72
2022/04/22 02:47:36;;;;;;;4.80;2.35;;;6.90;94.30;;;;;;4958051;28;20034;-71
2022/04/22 02:50:02;;;;;;;5.15;2.60;;;6.90;94.00;;;;;;4955934;28;20033;-71
2022/04/22 02:52:28;;;;;;;4.95;2.55;;;6.90;93.80;;;;;;4956063;28;20031;-72
2022/04/22 02:54:54;;;;;;;5.78;2.80;;;7.00;93.90;;;;;;4956847;28;20039;-71
2022/04/22 02:57:20;;;;;;;3.97;2.55;;;7.10;93.90;;;;;;4955288;28;20043;-72
2022/04/22 02:59:46;;;;;;;9.65;3.15;;;7.20;93.80;;;;;;4957833;28;20034;-71
2022/04/22 03:02:12;;;;;;;4.63;2.33;;;7.30;93.80;;;;;;4956319;28;20471;-72
2022/04/22 03:04:38;;;;;;;3.75;2.17;;;7.30;93.60;;;;;;4955942;28;20033;-72
2022/04/22 03:07:04;;;;;;;3.33;2.15;;;7.30;93.50;;;;;;4935297;28;20030;-72
2022/04/22 03:09:29;;;;;;;4.45;2.20;;;7.20;93.50;;;;;;4961290;28;20518;-72
2022/04/22 03:11:55;;;;;;;9.73;3.03;;;7.20;93.60;;;;;;4946015;28;20031;-72
2022/04/22 03:14:21;;;;;;;5.43;2.55;;;7.20;93.70;;;;;;4959310;28;20502;-72
2022/04/22 03:16:47;;;;;;;4.80;2.35;;;7.20;93.70;;;;;;4958350;28;20046;-72
2022/04/22 03:19:12;;;;;;;6.38;2.60;;;7.10;93.60;;;;;;4956702;28;20039;-71
2022/04/22 03:21:38;;;;;;;6.15;3.17;;;7.10;93.50;;;;;;4958888;28;20038;-71
2022/04/22 03:24:04;;;;;;;5.38;2.30;;;7.20;93.60;;;;;;4954589;28;20448;-71
2022/04/22 03:26:30;;;;;;;5.40;2.55;;;7.30;93.50;;;;;;4959336;28;20042;-72
2022/04/22 03:28:57;;;;;;;5.50;2.50;;;7.30;93.50;;;;;;4958420;28;20814;-74
2022/04/22 03:31:23;;;;;;;4.53;2.58;;;7.40;93.50;;;;;;4961728;28;20139;-72
2022/04/22 03:33:49;;;;;;;4.45;2.10;;;7.40;93.40;;;;;;4942925;28;20242;-72
2022/04/22 03:36:15;;;;;;;5.45;2.70;;;7.40;93.40;;;;;;4957441;28;20058;-72
2022/04/22 03:38:43;;;;;;;5.38;2.67;;;7.40;93.40;;;;;;4956025;28;20038;-71
2022/04/22 03:41:10;;;;;;;5.45;2.28;;;7.50;93.40;;;;;;4961074;28;20070;-72
2022/04/22 03:43:36;;;;;;;6.03;2.80;;;7.50;93.30;;;;;;4962789;28;20113;-71
2022/04/22 03:46:02;;;;;;;9.18;3.08;;;7.60;93.20;;;;;;4953948;28;20797;-72
2022/04/22 03:48:28;;;;;;;4.07;2.45;;;7.60;93.10;;;;;;4960638;28;20019;-71
2022/04/22 03:50:56;;;;;;;5.38;2.53;;;7.60;92.90;;;;;;4959543;28;20528;-72
2022/04/22 03:53:22;;;;;;;6.63;2.58;;;7.60;92.90;;;;;;4961750;28;20134;-72
2022/04/22 03:55:48;;;;;;;3.25;2.45;;;7.60;92.90;;;;;;4955060;28;20026;-72
2022/04/22 03:58:17;;;;;;;4.28;2.80;;;7.60;92.90;;;;;;4958048;28;20554;-72
2022/04/22 04:00:48;;;;;;;7.82;3.40;;;7.70;92.90;;;;;;4940356;28;20082;-72
2022/04/22 04:03:21;;;;;;;9.43;4.18;;;7.70;92.80;;;;;;4960967;28;20039;-72
2022/04/22 04:05:49;;;;;;;5.10;3.30;;;7.70;92.80;;;;;;4959227;28;20097;-72
2022/04/22 04:08:20;;;;;;;9.05;3.70;;;7.70;92.70;;;;;;4960257;28;20132;-72
2022/04/22 04:16:15;;;;;;;10.05;3.25;;;7.70;92.90;;;;;;4952684;28;20035;-72
2022/04/22 04:18:41;;;;;;;7.47;4.38;;;7.70;92.90;;;;;;4959702;28;20557;-72
2022/04/22 04:23:55;;;;;;;9.15;3.80;;;7.70;92.90;;;;;;4957663;28;20031;-73
2022/04/22 04:26:22;;;;;;;5.70;3.45;;;7.80;92.90;;;;;;4952608;28;20050;-72
2022/04/22 04:28:50;;;;;;;8.48;3.95;;;7.80;92.80;;;;;;4955902;28;20042;-72
2022/04/22 04:31:17;;;;;;;9.27;4.18;;;7.80;92.60;;;;;;4957882;28;20030;-72
2022/04/22 04:33:44;;;;;;;9.43;4.00;;;7.90;92.60;;;;;;4958892;28;20174;-72
2022/04/22 04:36:10;;;;;;;10.30;4.55;;;8.00;92.90;;;;;;4956415;28;20727;-71
2022/04/22 04:38:39;;;;;;;8.23;4.60;;;8.00;92.50;;;;;;4956468;28;20030;-72
2022/04/22 04:41:09;;;;;;;15.50;4.63;;;8.10;92.50;;;;;;4956775;28;20109;-72
2022/04/22 04:43:36;;;;;;;10.80;4.90;;;8.20;92.30;;;;;;4955885;28;20034;-72
2022/04/22 04:46:02;;;;;;;9.43;4.32;;;8.30;91.90;;;;;;4943686;28;20595;-71
2022/04/22 04:48:28;;;;;;;5.82;3.83;;;8.40;91.80;;;;;;4960063;28;20031;-72
2022/04/22 04:50:55;;;;;;;12.15;4.90;;;8.50;91.70;;;;;;4956306;28;20074;-72
2022/04/22 04:53:25;;;;;;;10.50;4.65;;;8.50;91.70;;;;;;4956641;28;20035;-72
2022/04/22 04:55:52;;;;;;;11.55;4.35;;;8.60;91.50;;;;;;4959628;28;20034;-71
2022/04/22 04:58:19;;;;;;;10.90;4.43;;;8.60;91.40;;;;;;4953018;28;20392;-72
2022/04/22 05:00:45;;;;;;;8.77;3.90;;;8.60;91.50;;;;;;4960209;28;20062;-72
2022/04/22 05:03:14;;;;;;;10.98;4.40;;;8.50;91.50;;;;;;4958388;28;20118;-71
2022/04/22 05:05:41;;;;;;;10.05;4.32;;;8.60;91.50;;;;;;4955657;28;20035;-71
2022/04/22 05:08:07;;;;;;;7.38;4.10;;;8.50;91.50;;;;;;4957694;28;20605;-72
2022/04/22 05:10:35;;;;;;;10.88;4.45;;;8.50;91.40;;;;;;4957872;28;20759;-71
2022/04/22 05:13:03;;;;;;;9.57;4.57;;;8.60;91.30;;;;;;4957528;28;20027;-72
2022/04/22 05:15:29;;;;;;;8.82;4.75;;;8.70;91.30;;;;;;4941973;28;20558;-71
2022/04/22 05:17:56;;;;;;;11.27;4.63;;;8.80;91.00;;;;;;4954204;28;20370;-72
2022/04/22 05:20:25;;;;;;;15.00;5.10;;;9.00;90.80;;;;;;4943199;28;20046;-71
2022/04/22 05:22:54;;;;;;;8.00;4.07;;;9.20;90.40;;;;;;4960648;28;20069;-71
2022/04/22 05:25:21;;;;;;;12.43;4.95;;;9.40;90.00;;;;;;4961737;28;20498;-72
2022/04/22 05:27:48;;;;;;;8.70;4.38;;;9.70;89.30;;;;;;4955734;28;20026;-71
2022/04/22 05:32:59;;;;;;;10.63;4.93;;;10.50;85.60;;;;;;4956112;28;20842;-72
2022/04/22 05:35:27;;;;;;;10.38;5.13;;;10.90;84.10;;;;;;4952629;28;20290;-72
2022/04/22 05:38:01;;;;;;;10.05;3.67;;;11.40;83.00;;;;;;4955447;28;20031;-72
2022/04/22 05:40:32;;;;;;;12.93;4.30;;;11.70;79.50;;;;;;4958613;28;20035;-72
2022/04/22 05:42:59;;;;;;;8.63;4.57;;;12.20;78.00;;;;;;4954545;28;20041;-72
2022/04/22 05:45:26;;;;;;;10.50;4.60;;;13.00;75.10;;;;;;4955942;28;20795;-72
2022/04/22 05:47:52;;;;;;;10.73;4.47;;;13.70;72.40;;;;;;4955849;28;20031;-72
2022/04/22 05:50:19;;;;;;;7.03;4.07;;;14.20;68.70;;;;;;4953493;28;20122;-72
2022/04/22 05:52:46;;;;;;;11.75;4.90;;;14.40;67.40;;;;;;4957264;28;20027;-73
2022/04/22 05:55:16;;;;;;;9.88;4.82;;;14.30;66.70;;;;;;4956777;28;20129;-72
2022/04/22 05:57:43;;;;;;;9.38;4.78;;;14.10;66.30;;;;;;4956430;28;20804;-72
2022/04/22 06:00:12;;;;;;;8.93;4.18;;;14.00;66.30;;;;;;4955979;28;20038;-72
2022/04/22 06:02:39;;;;;;;8.90;4.05;;;13.60;68.00;;;;;;4954507;28;20039;-72
2022/04/22 06:05:05;;;;;;;8.57;4.97;;;14.10;66.60;;;;;;4952565;28;20035;-72
2022/04/22 06:07:31;;;;;;;12.00;5.00;;;14.70;66.00;;;;;;4953617;28;20035;-72
2022/04/22 06:12:41;;;;;;;9.00;4.15;;;16.50;59.70;;;;;;4954731;28;20150;-72
2022/04/22 06:15:10;;;;;;;9.98;4.97;;;17.20;56.10;;;;;;4956160;28;20039;-72
2022/04/22 06:17:36;;;;;;;8.75;4.63;;;16.80;56.10;;;;;;4952059;28;20047;-72
2022/04/22 06:20:02;;;;;;;9.63;4.68;;;16.20;57.50;;;;;;4956228;28;20113;-72
2022/04/22 06:22:28;;;;;;;8.68;4.07;;;16.40;58.70;;;;;;4955977;28;20035;-72
2022/04/22 06:24:55;;;;;;;6.47;4.15;;;18.00;55.00;;;;;;4953565;28;20068;-72
2022/04/22 06:27:29;;;;;;;7.57;4.30;;;18.50;52.70;;;;;;4952396;28;20027;-72
2022/04/22 06:29:56;;;;;;;11.45;5.22;;;18.00;52.40;;;;;;4955077;28;20027;-72
2022/04/22 06:32:22;;;;;;;11.98;5.22;;;17.30;53.40;;;;;;4955103;28;20073;-72
2022/04/22 06:34:52;;;;;;;11.88;4.88;;;16.70;55.00;;;;;;4958559;28;20114;-72
2022/04/22 06:37:18;;;;;;;9.63;4.85;;;16.20;57.40;;;;;;4959025;28;20045;-72
2022/04/22 06:47:58;;;;;;;12.15;5.00;;;16.60;56.20;;;;;;4939635;28;20026;-72
2022/04/22 06:50:24;;;;;;;12.70;5.70;;;16.40;56.30;;;;;;4951086;28;20491;-73
2022/04/22 06:52:50;;;;;;;11.38;5.07;;;16.90;56.40;;;;;;4959983;28;20033;-73
2022/04/22 06:55:19;;;;;;;10.93;5.53;;;17.30;55.20;;;;;;4958505;28;20473;-72
2022/04/22 06:57:49;;;;;;;9.35;4.95;;;16.90;54.60;;;;;;4957755;28;20045;-73
2022/04/22 07:00:16;;;;;;;8.40;4.70;;;16.10;56.40;;;;;;4958866;28;20113;-73
2022/04/22 07:02:42;;;;;;;12.07;5.22;;;16.60;56.70;;;;;;4959900;28;20035;-72
2022/04/22 07:05:09;;;;;;;10.25;5.00;;;17.50;54.80;;;;;;4958243;28;20113;-72
2022/04/22 07:07:35;;;;;;;10.52;5.20;;;18.20;53.60;;;;;;4961070;28;20043;-72
2022/04/22 07:10:01;;;;;;;10.07;5.00;;;19.40;51.00;;;;;;4957924;28;20222;-72
2022/04/22 07:12:28;;;;;;;7.72;4.63;;;19.50;49.90;;;;;;4961047;28;20027;-73
2022/04/22 07:15:03;;;;;;;9.77;5.45;;;19.10;49.70;;;;;;4955243;28;20085;-72
2022/04/22 07:17:38;;;;;;;10.23;5.07;;;18.90;51.30;;;;;;4953030;28;20046;-73
2022/04/22 07:20:09;;;;;;;10.55;4.57;;;20.20;50.10;;;;;;4954400;28;20023;-73
2022/04/22 07:22:36;;;;;;;10.65;4.90;;;20.80;47.20;;;;;;4954816;28;20039;-72
2022/04/22 07:25:03;;;;;;;12.48;5.07;;;21.30;46.40;;;;;;4956968;28;20554;-72
2022/04/22 07:27:32;;;;;;;9.23;4.85;;;21.60;46.30;;;;;;4958816;28;20570;-72
2022/04/22 07:29:59;;;;;;;10.13;5.15;;;22.60;43.90;;;;;;4959308;28;20881;-73
2022/04/22 07:32:25;;;;;;;9.00;5.22;;;24.10;41.80;;;;;;4958710;28;20038;-73
2022/04/22 07:34:52;;;;;;;10.98;4.85;;;26.40;37.70;;;;;;4955550;28;20059;-73
2022/04/22 07:37:18;;;;;;;9.60;5.22;;;26.00;37.20;;;;;;4959387;28;20364;-73
2022/04/22 07:39:44;;;;;;;9.27;4.50;;;25.20;37.60;;;;;;4954386;28;20038;-73
2022/04/22 07:42:17;;;;;;;7.80;4.65;;;24.50;38.80;;;;;;4957153;28;20087;-73
2022/04/22 07:47:32;;;;;;;9.05;5.07;;;25.30;38.60;;;;;;4954693;28;20554;-73
2022/04/22 07:49:58;;;;;;;7.43;4.82;;;26.00;37.00;;;;;;4959660;28;20041;-73
2022/04/22 07:52:24;;;;;;;7.30;4.80;;;26.70;35.30;;;;;;4958366;28;20034;-73
2022/04/22 07:54:50;;;;;;;8.30;4.85;;;26.90;34.40;;;;;;4958708;28;20030;-73
2022/04/22 07:57:16;;;;;;;10.32;6.22;;;26.40;34.60;;;;;;4957327;28;20582;-73
2022/04/22 07:59:42;;;;;;;8.48;5.28;;;26.10;35.90;;;;;;4958521;28;20089;-73
2022/04/22 08:02:08;;;;;;;8.70;5.68;;;26.10;36.10;;;;;;4954908;28;20030;-73
2022/04/22 08:04:34;;;;;;;10.13;5.75;;;26.30;35.40;;;;;;4954827;28;20121;-73
2022/04/22 08:07:01;;;;;;;10.95;5.53;;;26.70;34.40;;;;;;4942238;28;20039;-73
2022/04/22 08:09:27;;;;;;;8.25;5.28;;;26.10;34.50;;;;;;4955927;28;20125;-73
2022/04/22 08:11:53;;;;;;;9.05;5.07;;;24.80;36.10;;;;;;4958343;28;20449;-73
2022/04/22 08:14:18;;;;;;;7.95;4.78;;;23.70;38.60;;;;;;4955969;28;20071;-73
2022/04/22 08:16:44;;;;;;;11.25;5.32;;;22.80;39.90;;;;;;4959293;28;20065;-73
2022/04/22 08:19:10;;;;;;;10.90;5.95;;;22.00;41.10;;;;;;4960196;28;20092;-73
2022/04/22 08:21:35;;;;;;;7.32;4.85;;;21.30;41.90;;;;;;4953131;28;20031;-73
2022/04/22 08:24:02;;;;;;;9.45;4.95;;;21.20;43.70;;;;;;4960448;28;20511;-73
2022/04/22 08:26:30;;;;;;;9.48;5.43;;;21.10;42.30;;;;;;4958831;28;20063;-74
2022/04/22 08:28:55;;;;;;;9.73;5.57;;;20.60;42.60;;;;;;4954567;28;20591;-74
2022/04/22 08:31:21;;;;;;;7.95;4.90;;;20.20;43.40;;;;;;4959118;28;20035;-75
2022/04/22 08:33:48;;;;;;;9.55;5.78;;;20.50;43.70;;;;;;4954562;28;20530;-74
2022/04/22 08:36:14;;;;;;;10.68;5.30;;;20.80;43.50;;;;;;4953978;28;20034;-74
2022/04/22 08:38:40;;;;;;;8.80;5.07;;;21.40;42.60;;;;;;4938540;28;20035;-74
2022/04/22 08:41:09;;;;;;;11.63;6.35;;;21.70;41.80;;;;;;4955801;28;20033;-74
2022/04/22 08:43:37;;;;;;;9.90;5.80;;;21.40;42.30;;;;;;4937151;28;20031;-74
2022/04/22 08:46:02;;;;;;;11.35;5.80;;;20.60;42.80;;;;;;4958491;28;20570;-73
2022/04/22 08:51:15;;;;;;;7.70;5.60;;;20.00;45.10;;;;;;4954058;28;20027;-72
2022/04/22 08:53:47;;;;;;;12.05;5.45;;;19.70;45.70;;;;;;4955218;28;20031;-72
2022/04/22 08:56:14;;;;;;;10.38;5.60;;;19.50;47.00;;;;;;4953516;28;20031;-73
2022/04/22 08:58:39;;;;;;;12.35;6.10;;;19.50;46.80;;;;;;4950304;28;20771;-73
2022/04/22 09:01:07;;;;;;;6.93;5.28;;;19.70;46.90;;;;;;4954682;28;20035;-70
2022/04/22 09:03:33;;;;;;;11.38;5.63;;;19.80;46.50;;;;;;4956206;28;20037;-75
2022/04/22 09:06:02;;;;;;;9.98;5.80;;;19.50;46.80;;;;;;4955766;28;20027;-74
2022/04/22 09:08:28;;;;;;;10.73;5.10;;;19.00;47.70;;;;;;4956802;28;20833;-76
2022/04/22 09:11:01;;;;;;;10.90;5.80;;;18.50;49.30;;;;;;4957284;28;20034;-75
2022/04/22 09:13:31;;;;;;;8.52;5.57;;;18.30;49.60;;;;;;4936111;28;20695;-75
2022/04/22 09:16:00;;;;;;;9.27;5.70;;;18.40;50.40;;;;;;4954865;28;20027;-69
2022/04/22 09:18:26;;;;;;;9.88;5.70;;;18.70;49.40;;;;;;4955820;28;20035;-71
2022/04/22 09:21:02;;;;;;;8.45;5.70;;;19.00;49.00;;;;;;4952165;28;20058;-72
2022/04/22 09:23:32;;;;;;;10.57;6.70;;;19.00;48.60;;;;;;4954065;28;20030;-72
2022/04/22 09:25:59;;;;;;;8.25;5.85;;;19.10;49.10;;;;;;4954364;28;20674;-72
2022/04/22 09:28:25;;;;;;;11.68;6.78;;;18.60;49.30;;;;;;4957941;28;20037;-72
2022/04/22 09:31:02;;;;;;;15.05;7.28;;;18.20;50.60;;;;;;4952969;28;20109;-72
2022/04/22 09:33:48;;;;;;;11.57;6.88;;;18.10;51.90;;;;;;4951755;28;20126;-72
2022/04/22 09:44:57;;;;;;;9.98;6.90;;;17.90;53.10;;;;;;4956826;28;20039;-70
2022/04/22 09:47:27;;;;;;;10.52;6.93;;;17.60;52.80;;;;;;4957390;28;20088;-71
2022/04/22 09:49:54;;;;;;;15.70;6.57;;;17.20;53.90;;;;;;4955404;28;20028;-73
2022/04/22 09:52:30;;;;;;;10.77;6.13;;;17.10;54.50;;;;;;4960370;28;20035;-73
2022/04/22 09:54:58;;;;;;;9.98;6.13;;;17.20;55.00;;;;;;4953355;28;20031;-72
2022/04/22 09:57:24;;;;;;;9.88;6.40;;;17.50;55.40;;;;;;4950610;28;20031;-73
2022/04/22 09:59:51;;;;;;;9.90;6.50;;;17.50;54.60;;;;;;4959019;28;20069;-74
2022/04/22 10:02:25;;;;;;;10.95;6.55;;;17.50;54.80;;;;;;4955293;28;20129;-74
2022/04/22 10:04:54;;;;;;;11.30;7.05;;;17.70;54.80;;;;;;4953467;28;20031;-74
2022/04/22 10:07:25;;;;;;;11.35;6.20;;;17.50;54.00;;;;;;4959102;28;20721;-74
2022/04/22 10:09:54;;;;;;;13.13;6.65;;;17.20;55.60;;;;;;4956057;28;20030;-73
2022/04/22 10:12:22;;;;;;;10.45;6.20;;;17.20;55.00;;;;;;4956029;28;20039;-73
2022/04/22 10:14:53;;;;;;;9.57;6.13;;;17.10;55.30;;;;;;4951678;28;20063;-72
2022/04/22 10:17:20;;;;;;;11.50;6.80;;;17.20;55.70;;;;;;4954337;28;20054;-71
2022/04/22 10:19:46;;;;;;;10.68;6.13;;;17.30;54.80;;;;;;4953803;28;20046;-72
2022/04/22 10:22:13;;;;;;;14.15;7.07;;;17.70;55.50;;;;;;4954071;28;20133;-72
2022/04/22 10:24:40;;;;;;;12.07;7.13;;;18.10;54.00;;;;;;4953000;28;20019;-72
2022/04/22 10:27:08;;;;;;;9.13;7.25;;;18.80;53.30;;;;;;4955667;28;20506;-73
2022/04/22 10:29:36;;;;;;;12.02;7.90;;;19.20;51.50;;;;;;4947056;28;20031;-74
2022/04/22 10:32:06;;;;;;;12.57;8.50;;;19.30;51.40;;;;;;4951658;28;20042;-73
2022/04/22 10:34:42;;;;;;;13.32;8.45;;;18.90;52.00;;;;;;4957688;28;20511;-74
2022/04/22 10:37:41;;;;;;;10.75;8.40;;;18.80;52.40;;;;;;4958596;28;20133;-73
2022/04/22 10:40:28;;;;;;;15.73;9.70;;;19.50;52.70;;;;;;4926821;28;20463;-72
2022/04/22 10:42:58;;;;;;;12.52;7.82;;;20.10;50.10;;;;;;4956551;28;20091;-72
2022/04/22 10:48:25;;;;;;;12.52;8.52;;;20.30;49.20;;;;;;4958201;28;20823;-71
2022/04/22 10:50:58;;;;;;;11.55;8.50;;;19.40;51.20;;;;;;4955142;28;20620;-70
2022/04/22 10:53:29;;;;;;;13.32;8.95;;;18.80;52.30;;;;;;4954237;28;20487;-69
2022/04/22 10:56:26;;;;;;;13.00;8.82;;;18.40;54.50;;;;;;4939911;28;20856;-69
2022/04/22 10:59:20;;;;;;;20.13;9.68;;;17.90;55.20;;;;;;4952288;28;20034;-69
2022/04/22 11:01:47;;;;;;;15.57;10.45;;;17.70;55.70;;;;;;4958410;28;20045;-70
2022/04/22 11:04:20;;;;;;;14.43;9.68;;;17.50;56.80;;;;;;4961283;28;20134;-71
2022/04/22 11:06:47;;;;;;;14.00;8.93;;;17.40;57.60;;;;;;4956799;28;20406;-71
2022/04/22 11:09:30;;;;;;;16.90;10.02;;;17.30;57.60;;;;;;4956401;28;20026;-71
2022/04/22 11:12:00;;;;;;;16.83;11.30;;;17.00;58.00;;;;;;4955983;28;20503;-70
2022/04/22 11:14:27;;;;;;;15.00;10.18;;;16.90;58.40;;;;;;4956762;28;20023;-71
2022/04/22 11:16:55;;;;;;;17.45;10.57;;;16.80;59.20;;;;;;4960532;28;20794;-71
2022/04/22 11:19:21;;;;;;;15.95;10.30;;;16.60;59.20;;;;;;4959011;28;20721;-71
2022/04/22 11:21:56;;;;;;;14.95;10.48;;;16.60;60.00;;;;;;4958935;28;20031;-71
2022/04/22 11:24:31;;;;;;;15.18;10.55;;;16.60;59.80;;;;;;4958452;28;20154;-71
2022/04/22 11:27:05;;;;;;;23.00;11.80;;;16.40;60.40;;;;;;4956387;28;20031;-71
2022/04/22 11:29:31;;;;;;;17.52;11.77;;;16.40;60.70;;;;;;4958808;28;20071;-70
2022/04/22 11:32:09;;;;;;;17.38;11.63;;;16.20;61.40;;;;;;4954283;28;20138;-67
2022/04/22 11:34:59;;;;;;;19.75;12.63;;;16.00;62.20;;;;;;4959368;28;20027;-71
2022/04/22 11:37:26;;;;;;;18.63;12.77;;;15.80;62.90;;;;;;4957575;28;20030;-69
2022/04/22 11:39:52;;;;;;;18.23;12.40;;;15.70;63.90;;;;;;4960480;28;20065;-70
2022/04/22 11:42:18;;;;;;;17.15;12.07;;;15.70;64.70;;;;;;4956223;28;20054;-65
2022/04/22 11:45:04;;;;;;;16.60;12.60;;;15.80;64.30;;;;;;4942611;28;20039;-70
2022/04/22 11:47:30;;;;;;;18.95;13.85;;;15.90;63.50;;;;;;4955131;28;20678;-72
2022/04/22 11:49:56;;;;;;;26.92;14.38;;;15.80;63.90;;;;;;4949282;28;20023;-72
2022/04/22 11:52:23;;;;;;;20.88;13.70;;;15.60;65.00;;;;;;4957593;28;20043;-72
2022/04/22 11:54:50;;;;;;;31.80;14.35;;;15.30;65.80;;;;;;4955722;28;20038;-71
2022/04/22 11:57:19;;;;;;;24.63;13.40;;;15.00;66.80;;;;;;4962694;28;20030;-73
2022/04/22 12:05:32;;;;;;;19.90;14.13;;;14.80;68.20;;;;;;4957471;28;20495;-71
2022/04/22 12:05:35;;;;;;;19.30;12.82;;;14.50;69.70;;;;;;4948541;28;20157;-72
2022/04/22 12:08:10;;;;;;;19.90;13.75;;;14.40;70.60;;;;;;4953845;28;20031;-71
2022/04/22 12:10:36;;;;;;;19.90;13.52;;;14.40;71.60;;;;;;4957225;28;20027;-72
2022/04/22 12:13:04;;;;;;;25.73;14.25;;;14.40;72.30;;;;;;4954954;28;20034;-73
2022/04/22 12:15:30;;;;;;;22.17;15.90;;;14.50;72.50;;;;;;4953774;28;20096;-73
2022/04/22 12:17:57;;;;;;;19.45;14.55;;;14.50;72.00;;;;;;4956153;28;20031;-73
2022/04/22 12:20:25;;;;;;;23.33;15.57;;;14.40;72.80;;;;;;4953527;28;20023;-71
2022/04/22 12:22:52;;;;;;;21.70;14.98;;;14.50;73.30;;;;;;4955068;28;20035;-72
2022/04/22 12:25:20;;;;;;;19.65;14.50;;;14.70;73.50;;;;;;4941796;28;20034;-66
2022/04/22 12:28:07;;;;;;;23.90;16.60;;;14.70;75.10;;;;;;4960491;28;20035;-68
2022/04/22 12:30:38;;;;;;;24.02;15.57;;;14.40;76.50;;;;;;4954276;28;20479;-72
2022/04/22 12:33:05;;;;;;;25.52;16.33;;;14.30;78.70;;;;;;4959065;28;20054;-73
2022/04/22 12:35:31;;;;;;;23.35;16.80;;;14.40;78.60;;;;;;4956626;28;20043;-73
2022/04/22 12:37:57;;;;;;;24.20;16.85;;;14.30;78.30;;;;;;4954035;28;20031;-76
2022/04/22 12:40:23;;;;;;;29.85;17.67;;;14.20;78.40;;;;;;4957298;28;20749;-73
2022/04/22 12:42:52;;;;;;;23.35;16.35;;;14.40;78.10;;;;;;4954285;28;20023;-74
2022/04/22 12:54:06;;;;;;;22.25;16.38;;;15.70;72.50;;;;;;4942833;28;20051;-69
2022/04/22 12:56:34;;;;;;;25.85;17.52;;;16.20;70.70;;;;;;4954244;28;20126;-70
2022/04/22 12:59:01;;;;;;;23.55;16.40;;;16.30;70.20;;;;;;4955430;28;20031;-74
2022/04/22 13:01:32;;;;;;;25.67;17.35;;;16.40;69.70;;;;;;4953434;28;20491;-72
2022/04/22 13:03:58;;;;;;;23.48;16.52;;;16.40;70.00;;;;;;4952014;28;20035;-76
2022/04/22 13:06:44;;;;;;;22.65;17.38;;;16.50;69.90;;;;;;4959413;28;20073;-77
2022/04/22 13:09:12;;;;;;;23.00;15.48;;;16.70;69.10;;;;;;4956084;28;20046;-78
2022/04/22 13:11:38;;;;;;;23.10;15.50;;;16.70;69.30;;;;;;4955848;28;20162;-75
2022/04/22 13:14:05;;;;;;;23.05;14.57;;;16.70;67.90;;;;;;4957019;28;20019;-75
2022/04/22 13:16:31;;;;;;;20.20;14.30;;;16.70;67.00;;;;;;4954192;28;20031;-76
2022/04/22 13:18:58;;;;;;;18.25;13.38;;;16.60;67.00;;;;;;4940992;28;20102;-72
2022/04/22 13:21:24;;;;;;;17.42;13.00;;;16.40;67.10;;;;;;4954230;28;20031;-67
2022/04/22 13:23:52;;;;;;;19.77;13.88;;;16.30;68.10;;;;;;4956253;28;20034;-66
2022/04/22 13:26:19;;;;;;;23.88;15.18;;;16.10;68.60;;;;;;4955585;28;20031;-71
2022/04/22 13:28:45;;;;;;;21.85;14.70;;;16.20;69.00;;;;;;4959186;28;20038;-69
2022/04/22 13:31:11;;;;;;;19.60;14.07;;;16.60;68.30;;;;;;4955397;28;20393;-70
2022/04/22 13:33:37;;;;;;;20.90;14.23;;;16.80;66.30;;;;;;4959743;28;20043;-69
2022/04/22 13:36:04;;;;;;;20.70;14.85;;;17.10;66.40;;;;;;4955359;28;20049;-70
2022/04/22 13:38:32;;;;;;;24.42;15.45;;;17.20;64.80;;;;;;4953514;28;20066;-72
2022/04/22 13:40:58;;;;;;;20.13;14.50;;;17.50;63.40;;;;;;4956451;28;20035;-72
2022/04/22 13:43:30;;;;;;;18.83;13.05;;;17.50;62.60;;;;;;4957490;28;20160;-72
2022/04/22 13:54:12;;;;;;;16.88;12.15;;;17.50;61.60;;;;;;4954620;28;20034;-72
2022/04/22 13:56:37;;;;;;;16.83;11.30;;;17.30;61.30;;;;;;4954723;28;20026;-71
2022/04/22 13:59:03;;;;;;;19.20;11.05;;;17.00;60.90;;;;;;4954094;28;20031;-72